createdAt,value
2023-02-06T00:01:19.256Z,51.30
2023-02-06T00:03:45.753Z,50.80
2023-02-06T00:06:12.704Z,51.80
2023-02-06T00:08:39.201Z,48.33
2023-02-06T00:11:07.470Z,49.07
2023-02-06T00:13:35.027Z,49.50
2023-02-06T00:16:01.661Z,45.60
2023-02-06T00:18:28.440Z,46.50
2023-02-06T00:20:54.984Z,48.40
2023-02-06T00:23:21.468Z,46.23
2023-02-06T00:25:48.021Z,46.80
2023-02-06T00:28:14.581Z,46.43
2023-02-06T00:30:41.090Z,47.33
2023-02-06T00:33:07.549Z,46.73
2023-02-06T00:35:34.321Z,47.97
2023-02-06T00:38:02.449Z,47.60
2023-02-06T00:40:29.428Z,44.50
2023-02-06T00:42:55.942Z,51.10
2023-02-06T00:45:22.717Z,48.23
2023-02-06T00:47:49.170Z,48.67
2023-02-06T00:50:16.086Z,48.77
2023-02-06T00:52:42.634Z,49.93
2023-02-06T00:55:09.118Z,47.87
2023-02-06T00:57:35.586Z,48.97
2023-02-06T01:00:03.211Z,46.33
2023-02-06T01:02:29.708Z,47.80
2023-02-06T01:04:56.215Z,48.80
2023-02-06T01:07:22.752Z,48.57
2023-02-06T01:09:49.202Z,45.77
2023-02-06T01:12:15.849Z,46.83
2023-02-06T01:14:42.425Z,48.70
2023-02-06T01:17:10.217Z,46.07
2023-02-06T01:19:38.138Z,46.87
2023-02-06T01:22:05.247Z,47.70
2023-02-06T01:24:31.811Z,47.23
2023-02-06T01:26:58.493Z,47.73
2023-02-06T01:29:24.948Z,49.60
2023-02-06T01:31:51.381Z,49.13
2023-02-06T01:34:17.907Z,46.67
2023-02-06T01:36:44.401Z,45.20
2023-02-06T01:39:10.866Z,47.43
2023-02-06T01:41:37.582Z,48.70
2023-02-06T01:44:17.729Z,46.90
2023-02-06T01:46:46.726Z,48.03
2023-02-06T01:49:21.033Z,48.60
2023-02-06T01:51:49.278Z,46.63
2023-02-06T01:54:15.992Z,50.50
2023-02-06T01:56:48.360Z,46.77
2023-02-06T01:59:14.922Z,48.17
2023-02-06T02:01:41.953Z,49.13
2023-02-06T02:04:13.096Z,47.87
2023-02-06T02:06:40.089Z,49.23
2023-02-06T02:09:07.136Z,49.00
2023-02-06T02:11:36.290Z,47.30
2023-02-06T02:14:04.861Z,48.23
2023-02-06T02:16:48.683Z,48.30
2023-02-06T02:19:49.236Z,46.63
2023-02-06T02:22:39.774Z,46.20
2023-02-06T02:25:06.337Z,46.77
2023-02-06T02:27:41.737Z,46.83
2023-02-06T02:30:32.790Z,42.93
2023-02-06T02:33:34.939Z,42.17
2023-02-06T02:36:13.368Z,47.07
2023-02-06T02:38:57.140Z,46.70
2023-02-06T02:41:37.759Z,47.67
2023-02-06T02:44:08.332Z,45.77
2023-02-06T02:46:40.870Z,47.17
2023-02-06T02:49:17.310Z,48.03
2023-02-06T02:51:44.265Z,48.20
2023-02-06T02:54:10.859Z,47.10
2023-02-06T02:56:38.526Z,50.77
2023-02-06T02:59:16.042Z,51.40
2023-02-06T03:02:03.282Z,48.43
2023-02-06T03:05:04.281Z,51.33
2023-02-06T03:07:38.868Z,48.73
2023-02-06T03:10:15.525Z,48.00
2023-02-06T03:13:03.301Z,48.17
2023-02-06T03:15:45.914Z,50.30
2023-02-06T03:18:18.052Z,50.37
2023-02-06T03:20:45.995Z,50.13
2023-02-06T03:23:17.229Z,51.23
2023-02-06T03:25:45.583Z,51.63
2023-02-06T03:28:16.897Z,52.60
2023-02-06T03:30:46.253Z,51.13
2023-02-06T03:33:15.535Z,51.00
2023-02-06T03:35:42.271Z,52.20
2023-02-06T03:38:09.142Z,54.30
2023-02-06T03:40:36.317Z,49.73
2023-02-06T03:43:03.983Z,52.60
2023-02-06T03:45:39.271Z,51.43
2023-02-06T03:48:10.341Z,50.77
2023-02-06T03:50:39.569Z,52.60
2023-02-06T03:53:06.411Z,48.53
2023-02-06T03:55:32.877Z,51.03
2023-02-06T03:58:03.768Z,51.13
2023-02-06T04:00:31.043Z,51.03
2023-02-06T04:02:58.529Z,51.27
2023-02-06T04:05:34.806Z,51.73
2023-02-06T04:08:05.724Z,59.60
2023-02-06T04:10:32.394Z,57.77
2023-02-06T04:12:58.867Z,57.23
2023-02-06T04:15:25.511Z,60.60
2023-02-06T04:18:00.105Z,52.33
2023-02-06T04:20:28.279Z,48.83
2023-02-06T04:22:54.828Z,51.77
2023-02-06T04:25:21.485Z,53.67
2023-02-06T04:27:47.998Z,48.93
2023-02-06T04:30:15.661Z,46.50
2023-02-06T04:32:42.286Z,49.37
2023-02-06T04:35:08.983Z,46.13
2023-02-06T04:37:35.686Z,43.77
2023-02-06T04:40:02.241Z,43.30
2023-02-06T04:42:28.729Z,48.30
2023-02-06T04:44:55.199Z,42.83
2023-02-06T04:47:21.769Z,43.77
2023-02-06T04:49:48.277Z,42.83
2023-02-06T04:52:14.775Z,41.23
2023-02-06T04:54:41.197Z,42.93
2023-02-06T04:57:07.697Z,41.47
2023-02-06T04:59:34.173Z,46.57
2023-02-06T05:02:01.581Z,42.03
2023-02-06T05:04:28.125Z,41.27
2023-02-06T05:06:54.599Z,40.03
2023-02-06T05:09:21.078Z,49.13
2023-02-06T05:11:47.552Z,48.40
2023-02-06T05:14:14.129Z,42.90
2023-02-06T05:16:40.596Z,44.90
2023-02-06T05:19:07.117Z,45.50
2023-02-06T05:21:33.601Z,53.20
2023-02-06T05:24:00.047Z,51.43
2023-02-06T05:26:26.488Z,51.20
2023-02-06T05:28:53.141Z,45.37
2023-02-06T05:31:20.264Z,42.27
2023-02-06T05:33:51.112Z,46.70
2023-02-06T05:36:18.901Z,44.13
2023-02-06T05:38:45.598Z,47.10
2023-02-06T05:41:12.715Z,45.80
2023-02-06T05:43:39.209Z,44.97
2023-02-06T05:46:05.912Z,43.67
2023-02-06T05:48:34.428Z,42.50
2023-02-06T05:51:01.402Z,41.03
2023-02-06T05:53:27.947Z,37.43
2023-02-06T05:55:54.594Z,40.90
2023-02-06T05:58:21.254Z,39.63
2023-02-06T06:00:47.763Z,40.83
2023-02-06T06:03:14.340Z,43.70
2023-02-06T06:05:40.808Z,41.93
2023-02-06T06:08:07.283Z,42.60
2023-02-06T06:10:33.806Z,41.40
2023-02-06T06:13:00.361Z,40.13
2023-02-06T06:15:26.855Z,42.10
2023-02-06T06:17:53.370Z,37.27
2023-02-06T06:20:19.956Z,40.50
2023-02-06T06:22:46.458Z,38.70
2023-02-06T06:25:13.169Z,38.10
2023-02-06T06:27:39.749Z,40.60
2023-02-06T06:30:06.718Z,35.43
2023-02-06T06:32:33.240Z,38.37
2023-02-06T06:34:59.841Z,37.73
2023-02-06T06:37:26.398Z,34.37
2023-02-06T06:39:52.916Z,34.80
2023-02-06T06:42:19.526Z,34.00
2023-02-06T06:44:46.326Z,33.90
2023-02-06T06:47:13.315Z,35.93
2023-02-06T06:49:39.886Z,36.70
2023-02-06T06:52:13.406Z,36.50
2023-02-06T06:54:46.329Z,36.60
2023-02-06T06:57:13.350Z,36.53
2023-02-06T06:59:40.216Z,35.67
2023-02-06T07:02:07.334Z,36.60
2023-02-06T07:04:33.895Z,34.03
2023-02-06T07:07:00.431Z,35.63
2023-02-06T07:09:27.130Z,33.97
2023-02-06T07:11:53.661Z,35.70
2023-02-06T07:14:20.264Z,39.37
2023-02-06T07:16:47.140Z,37.30
2023-02-06T07:19:13.688Z,38.47
2023-02-06T07:21:40.453Z,34.67
2023-02-06T07:24:07.209Z,37.63
2023-02-06T07:26:33.798Z,37.87
2023-02-06T07:29:00.319Z,37.33
2023-02-06T07:31:26.947Z,37.60
2023-02-06T07:33:53.437Z,39.57
2023-02-06T07:36:20.131Z,38.10
2023-02-06T07:38:46.782Z,36.20
2023-02-06T07:41:13.294Z,40.07
2023-02-06T07:43:39.886Z,33.43
2023-02-06T07:46:06.548Z,35.23
2023-02-06T07:48:33.024Z,33.37
2023-02-06T07:51:05.240Z,32.73
2023-02-06T07:53:31.742Z,35.80
2023-02-06T07:55:58.266Z,35.87
2023-02-06T07:58:25.679Z,44.67
2023-02-06T08:00:52.299Z,37.67
2023-02-06T08:03:19.062Z,39.47
2023-02-06T08:05:45.535Z,32.47
2023-02-06T08:08:12.577Z,34.20
2023-02-06T08:10:39.824Z,33.00
2023-02-06T08:13:06.318Z,33.50
2023-02-06T08:15:33.319Z,32.63
2023-02-06T08:17:59.941Z,34.70
2023-02-06T08:20:26.638Z,35.70
2023-02-06T08:22:54.147Z,35.93
2023-02-06T08:25:20.662Z,37.10
2023-02-06T08:27:47.369Z,35.83
2023-02-06T08:30:14.023Z,41.80
2023-02-06T08:32:40.472Z,40.63
2023-02-06T08:35:07.103Z,36.97
2023-02-06T08:37:33.550Z,35.13
2023-02-06T08:40:00.062Z,37.37
2023-02-06T08:42:26.536Z,41.87
2023-02-06T08:44:53.808Z,38.73
2023-02-06T08:47:20.297Z,43.50
2023-02-06T08:49:50.644Z,44.45
2023-02-06T08:52:17.684Z,39.77
2023-02-06T08:54:44.169Z,37.13
2023-02-06T08:57:12.771Z,36.57
2023-02-06T08:59:39.311Z,35.83
2023-02-06T09:02:08.276Z,35.87
2023-02-06T09:04:37.596Z,35.23
2023-02-06T09:07:04.301Z,35.50
2023-02-06T09:09:30.923Z,35.73
2023-02-06T09:12:02.222Z,33.73
2023-02-06T09:14:29.403Z,34.07
2023-02-06T09:16:58.192Z,35.83
2023-02-06T09:19:25.457Z,34.40
2023-02-06T09:21:51.952Z,33.57
2023-02-06T09:24:18.522Z,35.13
2023-02-06T09:26:58.918Z,35.77
2023-02-06T09:29:28.948Z,35.30
2023-02-06T09:31:57.326Z,34.33
2023-02-06T09:34:25.694Z,35.07
2023-02-06T09:36:54.564Z,32.40
2023-02-06T09:39:21.476Z,33.87
2023-02-06T09:41:52.056Z,34.93
2023-02-06T09:44:33.140Z,34.80
2023-02-06T09:47:05.344Z,36.43
2023-02-06T09:49:46.553Z,36.40
2023-02-06T09:52:28.031Z,34.27
2023-02-06T09:55:10.241Z,34.93
2023-02-06T09:57:51.638Z,31.57
2023-02-06T10:00:31.640Z,30.70
2023-02-06T10:02:58.405Z,30.07
2023-02-06T10:05:35.098Z,32.27
2023-02-06T10:08:19.828Z,32.83
2023-02-06T10:10:51.886Z,30.87
2023-02-06T10:13:41.196Z,32.23
2023-02-06T10:16:30.879Z,34.20
2023-02-06T10:19:03.226Z,39.00
2023-02-06T10:21:42.950Z,38.83
2023-02-06T10:24:45.481Z,35.97
2023-02-06T10:27:14.241Z,36.53
2023-02-06T10:29:42.238Z,35.57
2023-02-06T10:32:14.286Z,34.57
2023-02-06T10:35:07.659Z,33.00
2023-02-06T10:38:04.861Z,33.37
2023-02-06T10:40:43.708Z,34.40
2023-02-06T10:43:48.536Z,34.87
2023-02-06T10:46:51.006Z,34.20
2023-02-06T10:49:23.250Z,32.87
2023-02-06T10:51:56.480Z,33.43
2023-02-06T10:54:47.557Z,32.13
2023-02-06T10:57:19.512Z,32.40
2023-02-06T10:59:48.596Z,33.53
2023-02-06T11:02:42.544Z,33.80
2023-02-06T11:05:14.659Z,33.87
2023-02-06T11:07:43.937Z,34.13
2023-02-06T11:10:21.861Z,33.73
2023-02-06T11:12:52.159Z,33.13
2023-02-06T11:15:24.997Z,31.67
2023-02-06T11:17:52.278Z,31.73
2023-02-06T11:20:25.164Z,32.67
2023-02-06T11:22:53.437Z,34.40
2023-02-06T11:25:31.404Z,34.63
2023-02-06T11:27:58.856Z,33.83
2023-02-06T11:30:34.819Z,40.10
2023-02-06T11:33:07.494Z,37.77
2023-02-06T11:35:38.894Z,36.57
2023-02-06T11:38:17.976Z,36.90
2023-02-06T11:41:06.707Z,40.13
2023-02-06T11:43:42.341Z,38.43
2023-02-06T11:46:20.919Z,38.20
2023-02-06T11:48:56.195Z,39.77
2023-02-06T11:51:24.070Z,42.37
2023-02-06T11:54:03.762Z,39.37
2023-02-06T11:56:31.590Z,39.70
2023-02-06T11:59:07.358Z,43.80
2023-02-06T12:01:51.765Z,45.37
2023-02-06T12:04:28.189Z,51.53
2023-02-06T12:07:00.756Z,57.80
2023-02-06T12:09:28.033Z,58.87
2023-02-06T12:11:59.345Z,58.93
2023-02-06T12:14:31.697Z,57.87
2023-02-06T12:17:01.263Z,71.93
2023-02-06T12:19:31.730Z,69.43
2023-02-06T12:22:02.577Z,63.50
2023-02-06T12:24:32.291Z,67.93
2023-02-06T12:27:02.508Z,57.13
2023-02-06T12:29:35.121Z,55.50
2023-02-06T12:32:14.739Z,58.10
2023-02-06T12:34:54.366Z,64.25
2023-02-06T12:37:41.097Z,70.03
2023-02-06T12:40:38.368Z,61.30
2023-02-06T12:43:15.086Z,65.00
2023-02-06T12:46:01.384Z,75.03
2023-02-06T12:48:45.906Z,68.40
2023-02-06T12:51:21.494Z,65.33
2023-02-06T12:54:09.851Z,66.00
2023-02-06T12:56:44.260Z,65.73
2023-02-06T12:59:10.645Z,62.87
2023-02-06T13:01:45.987Z,66.03
2023-02-06T13:04:17.180Z,65.00
2023-02-06T13:06:50.361Z,65.73
2023-02-06T13:09:21.823Z,68.63
2023-02-06T13:11:48.572Z,65.63
2023-02-06T13:14:26.934Z,68.80
2023-02-06T13:16:59.341Z,69.87
2023-02-06T13:19:46.024Z,69.13
2023-02-06T13:22:17.359Z,68.13
2023-02-06T13:24:46.077Z,67.37
2023-02-06T13:27:33.241Z,68.33
2023-02-06T13:30:29.029Z,69.17
2023-02-06T13:33:13.710Z,71.77
2023-02-06T13:35:59.050Z,69.13
2023-02-06T13:38:34.297Z,71.20
2023-02-06T13:41:15.643Z,72.00
2023-02-06T13:43:54.465Z,68.03
2023-02-06T13:46:23.362Z,67.83
2023-02-06T13:49:23.552Z,66.47
2023-02-06T13:51:52.952Z,69.33
2023-02-06T13:54:39.080Z,67.23
2023-02-06T13:57:26.880Z,72.93
2023-02-06T13:59:57.774Z,73.10
2023-02-06T14:02:28.777Z,71.93
2023-02-06T14:04:56.085Z,71.60
2023-02-06T14:07:43.632Z,70.53
2023-02-06T14:10:37.771Z,68.67
2023-02-06T14:13:24.087Z,70.67
2023-02-06T14:15:58.850Z,72.47
2023-02-06T14:18:48.797Z,70.13
2023-02-06T14:21:22.393Z,70.60
2023-02-06T14:24:27.615Z,64.60
2023-02-06T14:27:15.783Z,66.40
2023-02-06T14:29:52.366Z,64.00
2023-02-06T14:32:30.652Z,63.43
2023-02-06T14:35:11.901Z,68.00
2023-02-06T14:38:06.963Z,71.07
2023-02-06T14:40:36.519Z,72.80
2023-02-06T14:43:05.846Z,69.40
2023-02-06T14:45:42.090Z,75.20
2023-02-06T14:48:23.629Z,76.33
2023-02-06T14:50:55.459Z,74.50
2023-02-06T14:53:29.495Z,76.03
2023-02-06T14:56:08.784Z,71.90
2023-02-06T14:58:35.833Z,73.03
2023-02-06T15:01:24.385Z,75.73
2023-02-06T15:03:52.744Z,79.47
2023-02-06T15:06:37.706Z,77.53
2023-02-06T15:09:05.288Z,80.33
2023-02-06T15:11:34.842Z,81.20
2023-02-06T15:14:15.264Z,78.70
2023-02-06T15:16:49.352Z,81.70
2023-02-06T15:19:21.648Z,81.70
2023-02-06T15:21:49.382Z,78.10
2023-02-06T15:24:30.328Z,75.53
2023-02-06T15:27:21.795Z,81.40
2023-02-06T15:29:50.454Z,76.60
2023-02-06T15:32:24.015Z,76.33
2023-02-06T15:34:50.634Z,75.97
2023-02-06T15:37:27.737Z,74.07
2023-02-06T15:39:54.452Z,73.90
2023-02-06T15:42:21.757Z,72.53
2023-02-06T15:44:49.636Z,75.93
2023-02-06T15:47:17.860Z,77.57
2023-02-06T15:49:47.793Z,79.00
2023-02-06T15:52:15.501Z,79.90
2023-02-06T15:54:44.921Z,81.83
2023-02-06T15:57:29.593Z,82.13
2023-02-06T15:59:59.029Z,82.13
2023-02-06T16:02:36.386Z,78.63
2023-02-06T16:05:04.202Z,80.33
2023-02-06T16:07:35.654Z,82.03
2023-02-06T16:10:18.742Z,81.87
2023-02-06T16:12:45.366Z,81.60
2023-02-06T16:15:27.217Z,81.93
2023-02-06T16:17:54.491Z,78.57
2023-02-06T16:20:37.348Z,78.03
2023-02-06T16:23:27.031Z,77.07
2023-02-06T16:26:15.611Z,80.60
2023-02-06T16:29:09.469Z,79.07
2023-02-06T16:31:38.494Z,83.00
2023-02-06T16:34:29.075Z,78.33
2023-02-06T16:36:55.669Z,80.90
2023-02-06T16:39:23.635Z,84.97
2023-02-06T16:41:51.927Z,84.07
2023-02-06T16:44:19.488Z,94.00
2023-02-06T16:46:46.545Z,88.67
2023-02-06T16:49:16.626Z,92.30
2023-02-06T16:51:43.833Z,92.80
2023-02-06T16:54:20.177Z,90.83
2023-02-06T16:56:46.867Z,92.23
2023-02-06T16:59:13.414Z,95.20
2023-02-06T17:01:39.982Z,90.63
2023-02-06T17:04:06.662Z,89.93
2023-02-06T17:06:34.319Z,89.10
2023-02-06T17:09:06.528Z,84.43
2023-02-06T17:11:33.476Z,81.37
2023-02-06T17:13:59.981Z,81.20
2023-02-06T17:16:27.210Z,82.03
2023-02-06T17:18:54.313Z,78.70
2023-02-06T17:21:22.257Z,76.53
2023-02-06T17:23:49.921Z,79.03
2023-02-06T17:26:21.674Z,77.87
2023-02-06T17:28:48.585Z,73.20
2023-02-06T17:31:15.635Z,76.43
2023-02-06T17:33:42.203Z,73.53
2023-02-06T17:36:18.904Z,73.33
2023-02-06T17:38:45.607Z,71.03
2023-02-06T17:41:12.925Z,78.30
2023-02-06T17:43:39.507Z,73.63
2023-02-06T17:46:06.824Z,76.30
2023-02-06T17:48:36.649Z,78.33
2023-02-06T17:51:05.115Z,80.43
2023-02-06T17:53:31.695Z,85.47
2023-02-06T17:56:03.884Z,81.63
2023-02-06T17:58:30.529Z,76.00
2023-02-06T18:00:57.198Z,76.37
2023-02-06T18:03:23.824Z,81.67
2023-02-06T18:06:00.443Z,85.27
2023-02-06T18:08:28.557Z,86.60
2023-02-06T18:10:55.507Z,84.03
2023-02-06T18:13:24.029Z,88.50
2023-02-06T18:15:55.668Z,86.03
2023-02-06T18:18:26.190Z,90.37
2023-02-06T18:20:52.744Z,84.00
2023-02-06T18:23:19.488Z,84.83
2023-02-06T18:25:46.035Z,86.63
2023-02-06T18:28:14.765Z,84.07
2023-02-06T18:30:42.104Z,85.33
2023-02-06T18:33:09.191Z,88.53
2023-02-06T18:35:39.317Z,87.30
2023-02-06T18:38:09.555Z,87.70
2023-02-06T18:40:40.678Z,85.27
2023-02-06T18:43:07.730Z,87.50
2023-02-06T18:45:36.902Z,87.73
2023-02-06T18:48:04.959Z,90.27
2023-02-06T18:50:32.004Z,85.73
2023-02-06T18:52:58.567Z,94.37
2023-02-06T18:55:25.382Z,92.70
2023-02-06T18:57:53.693Z,87.90
2023-02-06T19:00:22.057Z,88.40
2023-02-06T19:02:49.628Z,87.97
2023-02-06T19:05:16.360Z,88.00
2023-02-06T19:07:42.917Z,81.10
2023-02-06T19:10:12.914Z,82.57
2023-02-06T19:12:40.149Z,81.70
2023-02-06T19:15:06.901Z,83.27
2023-02-06T19:17:33.920Z,80.13
2023-02-06T19:20:00.398Z,85.27
2023-02-06T19:22:27.019Z,88.80
2023-02-06T19:24:53.541Z,91.57
2023-02-06T19:27:21.234Z,87.77
2023-02-06T19:29:48.009Z,83.33
2023-02-06T19:32:14.525Z,86.63
2023-02-06T19:34:41.995Z,88.80
2023-02-06T19:37:09.895Z,91.13
2023-02-06T19:39:39.938Z,87.10
2023-02-06T19:42:09.579Z,88.90
2023-02-06T19:44:37.023Z,83.57
2023-02-06T19:47:03.936Z,82.03
2023-02-06T19:49:30.683Z,86.30
2023-02-06T19:51:57.309Z,84.50
2023-02-06T19:54:23.946Z,86.43
2023-02-06T19:56:50.399Z,86.03
2023-02-06T19:59:22.609Z,89.90
2023-02-06T20:01:52.188Z,92.30
2023-02-06T20:04:20.887Z,86.90
2023-02-06T20:06:49.253Z,92.07
2023-02-06T20:09:15.940Z,90.17
2023-02-06T20:11:42.798Z,94.83
2023-02-06T20:14:10.150Z,86.30
2023-02-06T20:16:38.214Z,83.77
2023-02-06T20:19:15.626Z,86.53
2023-02-06T20:21:44.709Z,86.43
2023-02-06T20:24:18.537Z,84.53
2023-02-06T20:26:45.512Z,92.43
2023-02-06T20:29:19.737Z,92.13
2023-02-06T20:31:46.555Z,87.07
2023-02-06T20:34:13.635Z,93.20
2023-02-06T20:36:41.884Z,98.17
2023-02-06T20:39:11.796Z,95.43
2023-02-06T20:41:38.807Z,99.83
2023-02-06T20:44:05.852Z,106.37
2023-02-06T20:46:33.906Z,107.20
2023-02-06T20:49:02.946Z,103.40
2023-02-06T20:51:30.938Z,103.43
2023-02-06T20:53:58.225Z,97.10
2023-02-06T20:56:24.865Z,100.73
2023-02-06T20:58:51.485Z,98.17
2023-02-06T21:01:22.249Z,103.50
2023-02-06T21:03:49.429Z,96.23
2023-02-06T21:06:16.144Z,93.80
2023-02-06T21:08:43.058Z,90.43
2023-02-06T21:11:09.638Z,90.27
2023-02-06T21:13:36.381Z,94.47
2023-02-06T21:16:03.211Z,97.47
2023-02-06T21:18:31.093Z,95.60
2023-02-06T21:21:07.232Z,94.47
2023-02-06T21:23:34.075Z,91.53
2023-02-06T21:26:00.622Z,90.03
2023-02-06T21:28:27.130Z,88.47
2023-02-06T21:30:59.810Z,89.40
2023-02-06T21:33:26.407Z,85.33
2023-02-06T21:35:53.710Z,92.43
2023-02-06T21:38:20.787Z,89.93
2023-02-06T21:40:47.385Z,89.27
2023-02-06T21:43:17.011Z,90.50
2023-02-06T21:45:44.596Z,89.63
2023-02-06T21:48:11.552Z,86.87
2023-02-06T21:50:39.291Z,94.63
2023-02-06T21:53:05.924Z,88.60
2023-02-06T21:55:32.495Z,87.77
2023-02-06T21:58:00.607Z,84.87
2023-02-06T22:00:28.498Z,81.70
2023-02-06T22:02:54.993Z,86.73
2023-02-06T22:05:21.671Z,85.97
2023-02-06T22:07:48.140Z,85.53
2023-02-06T22:10:14.750Z,84.73
2023-02-06T22:12:41.238Z,86.93
2023-02-06T22:15:08.246Z,89.50
2023-02-06T22:17:35.450Z,88.73
2023-02-06T22:20:01.954Z,92.60
2023-02-06T22:22:28.551Z,93.20
2023-02-06T22:24:54.998Z,94.03
2023-02-06T22:27:21.551Z,91.17
2023-02-06T22:29:48.002Z,93.30
2023-02-06T22:32:14.452Z,96.87
2023-02-06T22:34:40.929Z,98.37
2023-02-06T22:37:07.391Z,100.10
2023-02-06T22:39:33.923Z,97.77
2023-02-06T22:42:00.624Z,98.70
2023-02-06T22:44:27.118Z,94.53
2023-02-06T22:46:53.659Z,90.43
2023-02-06T22:49:20.965Z,85.70
2023-02-06T22:51:47.527Z,92.70
2023-02-06T22:54:14.602Z,89.43
2023-02-06T22:56:42.340Z,88.93
2023-02-06T22:59:26.954Z,89.53
2023-02-06T23:01:56.270Z,87.93
2023-02-06T23:04:27.531Z,84.60
2023-02-06T23:06:54.146Z,80.00
2023-02-06T23:09:23.229Z,81.10
2023-02-06T23:11:50.690Z,80.47
2023-02-06T23:14:18.579Z,76.23
2023-02-06T23:16:45.433Z,73.57
2023-02-06T23:19:13.149Z,72.13
2023-02-06T23:21:41.164Z,70.23
2023-02-06T23:24:09.053Z,69.27
2023-02-06T23:26:35.919Z,70.47
2023-02-06T23:29:06.149Z,67.03
2023-02-06T23:31:32.985Z,66.87
2023-02-06T23:33:59.597Z,67.60
2023-02-06T23:36:27.139Z,63.93
2023-02-06T23:38:53.803Z,65.40
2023-02-06T23:41:23.302Z,62.00
2023-02-06T23:43:55.753Z,62.90
2023-02-06T23:46:22.859Z,64.33
2023-02-06T23:48:49.907Z,64.57
2023-02-06T23:51:17.493Z,59.30
2023-02-06T23:53:44.092Z,58.20
2023-02-06T23:56:12.868Z,58.87
2023-02-06T23:58:39.867Z,60.37
